Terminal Aerodrome Forecast
Issued by NWS

Home | Current Version | Previous Version | Text Only | Print | Product List | Glossary On
Versions: 1 2 3 4 5 6 7 8 9 10 11 12 13
000
FTUS44 KBMX 020500
TAFMGM
TAF
KMGM 020536Z 0206/0306 VRB05KT 6SM -RA BR OVC005
     FM020900 VRB03KT 2SM BR VCSH OVC003
     FM021600 VRB03KT 5SM -DZ BR OVC007=

USA.gov is the U.S. government's official web portal to all federal, state and local government web resources and services.